This is the latest recevied weather packets stored in our database for station/object KF4HJW. If no packets are shown the sender has not sent any weather packets the latest 10 day(s).
| Time | Temp. | Humidity | Pressure | Rain* | Wind** | Luminosity | Snow |
|---|---|---|---|---|---|---|---|
| 1777347620 | 10° C | 80% | 1023.2 hPa | 0 mm | - | - | - |
| 1777344019 | 10.56° C | 76% | 1023.6 hPa | 0 mm | - | - | - |
| 1777336820 | 13.33° C | 69% | 1023.2 hPa | 0 mm | - | - | - |
| 1777308021 | 17.22° C | 55% | 1023.6 hPa | 0 mm | - | - | - |
| 1777300820 | 15.56° C | 60% | 1023.8 hPa | 0 mm | - | - | - |
| 1777293620 | 11.67° C | 84% | 1022.7 hPa | 0 mm | - | - | - |
| 1777290018 | 10° C | 90% | 1021.8 hPa | 0 mm | - | - | - |
| 1777286418 | 8.89° C | 90% | 1021.2 hPa | 0 mm | - | - | - |
| 1777282818 | 9.44° C | 90% | 1021 hPa | 0 mm | - | - | - |
| 1777279218 | 9.44° C | 89% | 1020.9 hPa | 0 mm | - | - | - |
| 1777272018 | 11.11° C | 84% | 1020.4 hPa | 0 mm | - | - | - |
| 1777264820 | 11.67° C | 83% | 1020.3 hPa | 0 mm | - | - | - |
| 1777257619 | 11.67° C | 85% | 1019.9 hPa | 0 mm | - | - | - |
| 1777250419 | 11.67° C | 83% | 1019.3 hPa | 0 mm | - | - | - |
| 1777243219 | 12.22° C | 83% | 1018 hPa | 0 mm | - | - | - |
| 1777236019 | 12.22° C | 81% | 1017 hPa | 0 mm | - | - | - |
| 1777228819 | 12.78° C | 80% | 1016.8 hPa | 0 mm | - | - | - |
| 1777221617 | 11.11° C | 88% | 1016.6 hPa | 0 mm | - | - | - |
| 1777218017 | 10.56° C | 91% | 1016.3 hPa | 0 mm | - | - | - |
| 1777214418 | 10.56° C | 91% | 1015.9 hPa | 0 mm | - | - | - |
| 1777210817 | 10.56° C | 93% | 1015.2 hPa | 0 mm | - | - | - |
| 1777207217 | 10.56° C | 94% | 1014.5 hPa | 0.25 mm | - | - | - |
| 1777203617 | 10.56° C | 95% | 1014 hPa | 0 mm | - | - | - |
| 1777200017 | 11.11° C | 95% | 1012.8 hPa | 0 mm | - | - | - |
| 1777196417 | 11.67° C | 95% | 1011.7 hPa | 0 mm | - | - | - |
* Rain latest hour (hover to see other rain measurements)
** Current wind speed in m/s (hover to see current wind gust speed)